This is the latest recevied weather packets stored in our database for station/object WBGG. If no packets are shown the sender has not sent any weather packets the latest 10 day(s).
| Time | Temp. | Humidity | Pressure | Rain* | Wind** | Luminosity | Snow |
|---|---|---|---|---|---|---|---|
| 1777626605 | 30° C | 79% | 1006 hPa | - | - | - | - |
| 1777625379 | 30.56° C | 74% | 1006 hPa | - | - | - | - |
| 1777624781 | 30.56° C | 74% | 1006 hPa | - | - | - | - |
| 1777624179 | 30.56° C | 70% | 1006 hPa | - | - | - | - |
| 1777622999 | 31.67° C | 70% | 1005 hPa | - | - | - | - |
| 1777621179 | 32.78° C | 66% | 1006 hPa | - | - | - | - |
| 1777619397 | 33.89° C | 59% | 1006 hPa | - | - | - | - |
| 1777617583 | 32.78° C | 62% | 1007 hPa | - | - | - | - |
| 1777615798 | 32.78° C | 62% | 1008 hPa | - | - | - | - |
| 1777613979 | 32.78° C | 62% | 1008 hPa | - | - | - | - |
| 1777612204 | 31.67° C | 66% | 1009 hPa | - | - | - | - |
| 1777610380 | 31.67° C | 66% | 1009 hPa | - | - | - | - |
| 1777608596 | 30.56° C | 70% | 1010 hPa | - | - | - | - |
| 1777606779 | 30° C | 74% | 1010 hPa | - | - | - | - |
| 1777604996 | 28.89° C | 83% | 1011 hPa | - | - | - | - |
| 1777603178 | 27.78° C | 83% | 1011 hPa | - | - | - | - |
| 1777601396 | 26.67° C | 88% | 1011 hPa | - | - | - | - |
| 1777599578 | 26.67° C | 88% | 1011 hPa | - | - | - | - |
| 1777597804 | 25.56° C | 94% | 1011 hPa | - | - | - | - |
| 1777595980 | 25° C | 10% | - | - | - | - | - |
| 1777594196 | 25° C | 10% | - | - | - | - | - |
| 1777592378 | 25° C | 94% | 1010 hPa | - | - | - | - |
| 1777590596 | 25° C | 94% | 1010 hPa | - | - | - | - |
| 1777588778 | 25° C | 94% | 1010 hPa | - | - | - | - |
| 1777586996 | 25° C | 94% | 1010 hPa | - | - | - | - |
* Rain since midnight (hover to see other rain measurements)
** Current wind speed in m/s (hover to see current wind gust speed)